sensor_id;sensor_type;location;lat;lon;timestamp;P1;durP1;ratioP1;P2;durP2;ratioP2
84738;SDS011;74969;44.836;-0.586;2024-02-15T00:01:22;1.93;;;1.47;;
84738;SDS011;74969;44.836;-0.586;2024-02-15T00:03:47;2.88;;;1.25;;
84738;SDS011;74969;44.836;-0.586;2024-02-15T00:06:15;2.60;;;1.33;;
84738;SDS011;74969;44.836;-0.586;2024-02-15T00:08:40;2.80;;;1.13;;
84738;SDS011;74969;44.836;-0.586;2024-02-15T00:11:06;1.83;;;1.20;;
84738;SDS011;74969;44.836;-0.586;2024-02-15T00:13:34;4.32;;;1.40;;
84738;SDS011;74969;44.836;-0.586;2024-02-15T00:16:00;4.43;;;1.55;;
84738;SDS011;74969;44.836;-0.586;2024-02-15T00:18:27;3.10;;;1.25;;
84738;SDS011;74969;44.836;-0.586;2024-02-15T00:20:52;2.93;;;1.67;;
84738;SDS011;74969;44.836;-0.586;2024-02-15T00:23:18;2.03;;;1.30;;
84738;SDS011;74969;44.836;-0.586;2024-02-15T00:25:44;2.90;;;1.20;;
84738;SDS011;74969;44.836;-0.586;2024-02-15T00:28:10;5.50;;;1.50;;
84738;SDS011;74969;44.836;-0.586;2024-02-15T00:30:37;2.03;;;1.13;;
84738;SDS011;74969;44.836;-0.586;2024-02-15T00:33:03;3.30;;;1.20;;
84738;SDS011;74969;44.836;-0.586;2024-02-15T00:35:29;2.53;;;1.10;;
84738;SDS011;74969;44.836;-0.586;2024-02-15T00:37:55;2.40;;;1.00;;
84738;SDS011;74969;44.836;-0.586;2024-02-15T00:40:20;3.47;;;1.40;;
84738;SDS011;74969;44.836;-0.586;2024-02-15T00:42:46;2.33;;;1.40;;
84738;SDS011;74969;44.836;-0.586;2024-02-15T00:45:12;1.65;;;1.10;;
84738;SDS011;74969;44.836;-0.586;2024-02-15T00:47:38;2.83;;;1.33;;
84738;SDS011;74969;44.836;-0.586;2024-02-15T00:50:07;2.47;;;1.40;;
84738;SDS011;74969;44.836;-0.586;2024-02-15T00:52:36;2.80;;;1.10;;
84738;SDS011;74969;44.836;-0.586;2024-02-15T00:55:01;2.43;;;1.27;;
84738;SDS011;74969;44.836;-0.586;2024-02-15T00:57:27;2.45;;;1.17;;
84738;SDS011;74969;44.836;-0.586;2024-02-15T00:59:53;2.00;;;1.13;;
84738;SDS011;74969;44.836;-0.586;2024-02-15T01:02:18;3.00;;;1.05;;
84738;SDS011;74969;44.836;-0.586;2024-02-15T01:04:44;2.40;;;1.20;;
84738;SDS011;74969;44.836;-0.586;2024-02-15T01:07:12;2.75;;;1.20;;
84738;SDS011;74969;44.836;-0.586;2024-02-15T01:09:38;4.53;;;1.58;;
84738;SDS011;74969;44.836;-0.586;2024-02-15T01:12:04;3.63;;;1.40;;
84738;SDS011;74969;44.836;-0.586;2024-02-15T01:14:30;4.82;;;1.27;;
84738;SDS011;74969;44.836;-0.586;2024-02-15T01:16:56;4.60;;;1.80;;
84738;SDS011;74969;44.836;-0.586;2024-02-15T01:19:22;2.23;;;1.13;;
84738;SDS011;74969;44.836;-0.586;2024-02-15T01:21:48;5.57;;;1.30;;
84738;SDS011;74969;44.836;-0.586;2024-02-15T01:24:14;2.37;;;1.20;;
84738;SDS011;74969;44.836;-0.586;2024-02-15T01:26:39;2.07;;;1.20;;
84738;SDS011;74969;44.836;-0.586;2024-02-15T01:29:05;2.72;;;1.30;;
84738;SDS011;74969;44.836;-0.586;2024-02-15T01:31:31;3.50;;;1.30;;
84738;SDS011;74969;44.836;-0.586;2024-02-15T01:33:56;3.40;;;1.35;;
84738;SDS011;74969;44.836;-0.586;2024-02-15T01:36:22;3.13;;;1.20;;
84738;SDS011;74969;44.836;-0.586;2024-02-15T01:38:48;2.63;;;1.40;;
84738;SDS011;74969;44.836;-0.586;2024-02-15T01:41:13;1.83;;;1.30;;
84738;SDS011;74969;44.836;-0.586;2024-02-15T01:43:43;2.88;;;1.30;;
84738;SDS011;74969;44.836;-0.586;2024-02-15T01:46:10;2.67;;;1.20;;
84738;SDS011;74969;44.836;-0.586;2024-02-15T01:48:36;2.38;;;1.33;;
84738;SDS011;74969;44.836;-0.586;2024-02-15T01:51:03;2.83;;;1.13;;
84738;SDS011;74969;44.836;-0.586;2024-02-15T01:53:30;4.25;;;1.98;;
84738;SDS011;74969;44.836;-0.586;2024-02-15T01:55:57;1.98;;;1.10;;
84738;SDS011;74969;44.836;-0.586;2024-02-15T01:58:25;1.23;;;1.00;;
84738;SDS011;74969;44.836;-0.586;2024-02-15T02:00:52;2.10;;;1.42;;
84738;SDS011;74969;44.836;-0.586;2024-02-15T02:03:21;3.38;;;1.70;;
84738;SDS011;74969;44.836;-0.586;2024-02-15T02:05:47;2.50;;;1.33;;
84738;SDS011;74969;44.836;-0.586;2024-02-15T02:08:13;4.45;;;2.05;;
84738;SDS011;74969;44.836;-0.586;2024-02-15T02:10:38;2.80;;;1.47;;
84738;SDS011;74969;44.836;-0.586;2024-02-15T02:13:05;2.10;;;1.00;;
84738;SDS011;74969;44.836;-0.586;2024-02-15T02:15:31;2.85;;;1.15;;
84738;SDS011;74969;44.836;-0.586;2024-02-15T02:17:58;2.85;;;1.20;;
84738;SDS011;74969;44.836;-0.586;2024-02-15T02:20:25;2.28;;;1.00;;
84738;SDS011;74969;44.836;-0.586;2024-02-15T02:22:53;3.50;;;1.70;;
84738;SDS011;74969;44.836;-0.586;2024-02-15T02:25:24;2.70;;;1.35;;
84738;SDS011;74969;44.836;-0.586;2024-02-15T02:27:52;1.95;;;1.05;;
84738;SDS011;74969;44.836;-0.586;2024-02-15T02:30:18;2.55;;;1.00;;
84738;SDS011;74969;44.836;-0.586;2024-02-15T02:32:47;3.42;;;1.20;;
84738;SDS011;74969;44.836;-0.586;2024-02-15T02:35:13;2.97;;;1.05;;
84738;SDS011;74969;44.836;-0.586;2024-02-15T02:37:40;2.67;;;1.20;;
84738;SDS011;74969;44.836;-0.586;2024-02-15T02:40:07;2.35;;;1.10;;
84738;SDS011;74969;44.836;-0.586;2024-02-15T02:42:35;5.05;;;1.35;;
84738;SDS011;74969;44.836;-0.586;2024-02-15T02:45:02;1.92;;;1.15;;
84738;SDS011;74969;44.836;-0.586;2024-02-15T02:47:30;3.35;;;1.20;;
84738;SDS011;74969;44.836;-0.586;2024-02-15T02:49:55;3.53;;;1.00;;
84738;SDS011;74969;44.836;-0.586;2024-02-15T02:52:21;3.45;;;1.48;;
84738;SDS011;74969;44.836;-0.586;2024-02-15T02:54:47;2.23;;;1.20;;
84738;SDS011;74969;44.836;-0.586;2024-02-15T02:57:13;3.30;;;1.23;;
84738;SDS011;74969;44.836;-0.586;2024-02-15T02:59:38;3.17;;;1.67;;
84738;SDS011;74969;44.836;-0.586;2024-02-15T03:02:04;3.72;;;1.27;;
84738;SDS011;74969;44.836;-0.586;2024-02-15T03:04:31;2.13;;;1.27;;
84738;SDS011;74969;44.836;-0.586;2024-02-15T03:06:57;3.83;;;1.63;;
84738;SDS011;74969;44.836;-0.586;2024-02-15T03:09:23;2.00;;;1.20;;
84738;SDS011;74969;44.836;-0.586;2024-02-15T03:11:51;3.15;;;1.02;;
84738;SDS011;74969;44.836;-0.586;2024-02-15T03:14:16;2.00;;;0.93;;
84738;SDS011;74969;44.836;-0.586;2024-02-15T03:16:42;1.93;;;0.90;;
84738;SDS011;74969;44.836;-0.586;2024-02-15T03:19:07;2.70;;;1.10;;
84738;SDS011;74969;44.836;-0.586;2024-02-15T03:21:36;2.60;;;1.10;;
84738;SDS011;74969;44.836;-0.586;2024-02-15T03:24:01;2.55;;;0.85;;
84738;SDS011;74969;44.836;-0.586;2024-02-15T03:26:31;2.03;;;1.10;;
84738;SDS011;74969;44.836;-0.586;2024-02-15T03:29:05;2.33;;;0.95;;
84738;SDS011;74969;44.836;-0.586;2024-02-15T03:31:32;4.38;;;1.30;;
84738;SDS011;74969;44.836;-0.586;2024-02-15T03:33:59;1.63;;;0.90;;
84738;SDS011;74969;44.836;-0.586;2024-02-15T03:36:25;1.10;;;0.80;;
84738;SDS011;74969;44.836;-0.586;2024-02-15T03:38:52;2.00;;;0.85;;
84738;SDS011;74969;44.836;-0.586;2024-02-15T03:41:19;1.58;;;0.70;;
84738;SDS011;74969;44.836;-0.586;2024-02-15T03:43:45;1.08;;;0.77;;
84738;SDS011;74969;44.836;-0.586;2024-02-15T03:46:11;1.67;;;0.70;;
84738;SDS011;74969;44.836;-0.586;2024-02-15T03:48:38;1.48;;;0.80;;
84738;SDS011;74969;44.836;-0.586;2024-02-15T03:51:04;1.70;;;0.90;;
84738;SDS011;74969;44.836;-0.586;2024-02-15T03:53:31;1.85;;;0.70;;
84738;SDS011;74969;44.836;-0.586;2024-02-15T03:55:58;2.28;;;0.50;;
84738;SDS011;74969;44.836;-0.586;2024-02-15T03:58:25;1.73;;;0.70;;
84738;SDS011;74969;44.836;-0.586;2024-02-15T04:00:51;1.77;;;0.60;;
84738;SDS011;74969;44.836;-0.586;2024-02-15T04:03:16;3.30;;;0.65;;
84738;SDS011;74969;44.836;-0.586;2024-02-15T04:05:42;1.33;;;0.50;;
84738;SDS011;74969;44.836;-0.586;2024-02-15T04:08:08;2.20;;;1.00;;
84738;SDS011;74969;44.836;-0.586;2024-02-15T04:10:34;1.85;;;0.50;;
84738;SDS011;74969;44.836;-0.586;2024-02-15T04:13:00;3.10;;;1.67;;
84738;SDS011;74969;44.836;-0.586;2024-02-15T04:15:25;1.47;;;0.50;;
84738;SDS011;74969;44.836;-0.586;2024-02-15T04:17:51;2.30;;;0.63;;
84738;SDS011;74969;44.836;-0.586;2024-02-15T04:20:21;4.93;;;0.80;;
84738;SDS011;74969;44.836;-0.586;2024-02-15T04:22:47;1.27;;;0.60;;
84738;SDS011;74969;44.836;-0.586;2024-02-15T04:25:15;4.55;;;0.70;;
84738;SDS011;74969;44.836;-0.586;2024-02-15T04:27:45;1.10;;;0.40;;
84738;SDS011;74969;44.836;-0.586;2024-02-15T04:30:14;0.77;;;0.50;;
84738;SDS011;74969;44.836;-0.586;2024-02-15T04:32:40;1.13;;;0.50;;
84738;SDS011;74969;44.836;-0.586;2024-02-15T04:35:06;1.23;;;0.65;;
84738;SDS011;74969;44.836;-0.586;2024-02-15T04:37:32;1.10;;;0.40;;
84738;SDS011;74969;44.836;-0.586;2024-02-15T04:39:59;2.08;;;0.68;;
84738;SDS011;74969;44.836;-0.586;2024-02-15T04:42:51;1.05;;;0.65;;
84738;SDS011;74969;44.836;-0.586;2024-02-15T04:45:17;2.47;;;0.93;;
84738;SDS011;74969;44.836;-0.586;2024-02-15T04:47:44;2.05;;;0.60;;
84738;SDS011;74969;44.836;-0.586;2024-02-15T04:50:14;2.20;;;1.00;;
84738;SDS011;74969;44.836;-0.586;2024-02-15T04:52:43;1.95;;;1.08;;
84738;SDS011;74969;44.836;-0.586;2024-02-15T04:55:10;2.60;;;0.60;;
84738;SDS011;74969;44.836;-0.586;2024-02-15T04:57:36;1.73;;;0.60;;
84738;SDS011;74969;44.836;-0.586;2024-02-15T05:00:02;1.00;;;0.68;;
84738;SDS011;74969;44.836;-0.586;2024-02-15T05:02:35;2.63;;;0.80;;
84738;SDS011;74969;44.836;-0.586;2024-02-15T05:05:05;2.17;;;0.70;;
84738;SDS011;74969;44.836;-0.586;2024-02-15T05:07:33;3.30;;;0.80;;
84738;SDS011;74969;44.836;-0.586;2024-02-15T05:10:00;1.20;;;0.65;;
84738;SDS011;74969;44.836;-0.586;2024-02-15T05:12:27;1.88;;;0.68;;
84738;SDS011;74969;44.836;-0.586;2024-02-15T05:14:53;2.10;;;0.80;;
84738;SDS011;74969;44.836;-0.586;2024-02-15T05:17:18;2.47;;;0.80;;
84738;SDS011;74969;44.836;-0.586;2024-02-15T05:19:44;2.30;;;0.87;;
84738;SDS011;74969;44.836;-0.586;2024-02-15T05:22:10;1.45;;;0.82;;
84738;SDS011;74969;44.836;-0.586;2024-02-15T05:24:36;1.80;;;0.63;;
84738;SDS011;74969;44.836;-0.586;2024-02-15T05:27:04;3.43;;;1.17;;
84738;SDS011;74969;44.836;-0.586;2024-02-15T05:29:30;1.20;;;0.68;;
84738;SDS011;74969;44.836;-0.586;2024-02-15T05:31:59;2.58;;;0.80;;
84738;SDS011;74969;44.836;-0.586;2024-02-15T05:34:25;2.67;;;0.98;;
84738;SDS011;74969;44.836;-0.586;2024-02-15T05:36:51;2.60;;;0.87;;
84738;SDS011;74969;44.836;-0.586;2024-02-15T05:39:17;3.00;;;0.90;;
84738;SDS011;74969;44.836;-0.586;2024-02-15T05:41:46;1.40;;;0.90;;
84738;SDS011;74969;44.836;-0.586;2024-02-15T05:44:12;2.57;;;0.90;;
84738;SDS011;74969;44.836;-0.586;2024-02-15T05:46:39;2.35;;;1.00;;
84738;SDS011;74969;44.836;-0.586;2024-02-15T05:49:05;3.08;;;1.13;;
84738;SDS011;74969;44.836;-0.586;2024-02-15T05:51:31;3.33;;;1.03;;
84738;SDS011;74969;44.836;-0.586;2024-02-15T05:53:58;4.32;;;1.83;;
84738;SDS011;74969;44.836;-0.586;2024-02-15T05:56:24;2.30;;;0.88;;
84738;SDS011;74969;44.836;-0.586;2024-02-15T05:58:51;2.08;;;0.90;;
84738;SDS011;74969;44.836;-0.586;2024-02-15T06:01:17;3.00;;;1.50;;
84738;SDS011;74969;44.836;-0.586;2024-02-15T06:03:43;2.65;;;1.52;;
84738;SDS011;74969;44.836;-0.586;2024-02-15T06:06:10;3.33;;;1.52;;
84738;SDS011;74969;44.836;-0.586;2024-02-15T06:08:36;1.65;;;1.10;;
84738;SDS011;74969;44.836;-0.586;2024-02-15T06:11:03;2.20;;;1.10;;
84738;SDS011;74969;44.836;-0.586;2024-02-15T06:13:30;4.00;;;1.40;;
84738;SDS011;74969;44.836;-0.586;2024-02-15T06:15:56;2.50;;;1.10;;
84738;SDS011;74969;44.836;-0.586;2024-02-15T06:18:26;2.17;;;1.10;;
84738;SDS011;74969;44.836;-0.586;2024-02-15T06:20:57;2.17;;;1.35;;
84738;SDS011;74969;44.836;-0.586;2024-02-15T06:23:24;1.67;;;1.10;;
84738;SDS011;74969;44.836;-0.586;2024-02-15T06:25:52;1.90;;;1.10;;
84738;SDS011;74969;44.836;-0.586;2024-02-15T06:28:22;4.45;;;1.65;;
84738;SDS011;74969;44.836;-0.586;2024-02-15T06:31:09;2.53;;;1.55;;
84738;SDS011;74969;44.836;-0.586;2024-02-15T06:33:55;2.38;;;1.67;;
84738;SDS011;74969;44.836;-0.586;2024-02-15T06:36:40;2.27;;;1.40;;
84738;SDS011;74969;44.836;-0.586;2024-02-15T06:39:25;3.72;;;1.52;;
84738;SDS011;74969;44.836;-0.586;2024-02-15T06:42:15;2.45;;;1.40;;
84738;SDS011;74969;44.836;-0.586;2024-02-15T06:44:43;3.33;;;1.42;;
84738;SDS011;74969;44.836;-0.586;2024-02-15T06:47:09;4.05;;;2.00;;
84738;SDS011;74969;44.836;-0.586;2024-02-15T06:49:36;2.23;;;1.40;;
84738;SDS011;74969;44.836;-0.586;2024-02-15T06:52:05;2.85;;;1.80;;
84738;SDS011;74969;44.836;-0.586;2024-02-15T06:54:32;1.70;;;1.60;;
84738;SDS011;74969;44.836;-0.586;2024-02-15T06:56:59;3.55;;;1.58;;
84738;SDS011;74969;44.836;-0.586;2024-02-15T06:59:25;2.07;;;1.30;;
84738;SDS011;74969;44.836;-0.586;2024-02-15T07:01:50;2.55;;;1.52;;
84738;SDS011;74969;44.836;-0.586;2024-02-15T07:04:20;3.45;;;1.45;;
84738;SDS011;74969;44.836;-0.586;2024-02-15T07:06:46;3.53;;;1.83;;
84738;SDS011;74969;44.836;-0.586;2024-02-15T07:09:13;4.20;;;1.60;;
84738;SDS011;74969;44.836;-0.586;2024-02-15T07:11:40;2.10;;;1.50;;
84738;SDS011;74969;44.836;-0.586;2024-02-15T07:14:06;3.07;;;1.43;;
84738;SDS011;74969;44.836;-0.586;2024-02-15T07:16:34;3.55;;;1.80;;
84738;SDS011;74969;44.836;-0.586;2024-02-15T07:19:00;2.83;;;1.70;;
84738;SDS011;74969;44.836;-0.586;2024-02-15T07:21:26;5.35;;;1.92;;
84738;SDS011;74969;44.836;-0.586;2024-02-15T07:23:55;4.05;;;1.83;;
84738;SDS011;74969;44.836;-0.586;2024-02-15T07:26:21;3.63;;;1.80;;
84738;SDS011;74969;44.836;-0.586;2024-02-15T07:28:51;5.05;;;1.80;;
84738;SDS011;74969;44.836;-0.586;2024-02-15T07:31:18;2.20;;;2.00;;
84738;SDS011;74969;44.836;-0.586;2024-02-15T07:33:46;3.40;;;1.95;;
84738;SDS011;74969;44.836;-0.586;2024-02-15T07:36:19;5.68;;;1.88;;
84738;SDS011;74969;44.836;-0.586;2024-02-15T07:38:49;7.57;;;1.98;;
84738;SDS011;74969;44.836;-0.586;2024-02-15T07:41:19;2.75;;;1.65;;
84738;SDS011;74969;44.836;-0.586;2024-02-15T07:43:49;2.83;;;1.85;;
84738;SDS011;74969;44.836;-0.586;2024-02-15T07:46:16;3.17;;;2.10;;
84738;SDS011;74969;44.836;-0.586;2024-02-15T07:48:45;6.20;;;2.15;;
84738;SDS011;74969;44.836;-0.586;2024-02-15T07:51:21;3.03;;;2.10;;
84738;SDS011;74969;44.836;-0.586;2024-02-15T07:53:48;4.63;;;2.03;;
84738;SDS011;74969;44.836;-0.586;2024-02-15T07:56:14;4.25;;;2.03;;
84738;SDS011;74969;44.836;-0.586;2024-02-15T07:58:41;6.68;;;2.55;;
84738;SDS011;74969;44.836;-0.586;2024-02-15T08:01:11;3.38;;;2.00;;
84738;SDS011;74969;44.836;-0.586;2024-02-15T08:03:38;4.03;;;1.90;;
84738;SDS011;74969;44.836;-0.586;2024-02-15T08:06:09;3.78;;;1.92;;
84738;SDS011;74969;44.836;-0.586;2024-02-15T08:08:38;5.28;;;2.20;;
84738;SDS011;74969;44.836;-0.586;2024-02-15T08:11:06;4.03;;;2.13;;
84738;SDS011;74969;44.836;-0.586;2024-02-15T08:13:40;8.07;;;2.60;;
84738;SDS011;74969;44.836;-0.586;2024-02-15T08:16:15;5.43;;;2.55;;
84738;SDS011;74969;44.836;-0.586;2024-02-15T08:18:44;4.80;;;2.30;;
84738;SDS011;74969;44.836;-0.586;2024-02-15T08:21:11;4.32;;;2.25;;
84738;SDS011;74969;44.836;-0.586;2024-02-15T08:24:20;4.47;;;2.30;;
84738;SDS011;74969;44.836;-0.586;2024-02-15T08:26:46;3.15;;;2.20;;
84738;SDS011;74969;44.836;-0.586;2024-02-15T08:29:12;4.57;;;2.47;;
84738;SDS011;74969;44.836;-0.586;2024-02-15T08:31:40;5.68;;;2.75;;
84738;SDS011;74969;44.836;-0.586;2024-02-15T08:34:06;6.20;;;2.60;;
84738;SDS011;74969;44.836;-0.586;2024-02-15T08:36:35;5.97;;;2.35;;
84738;SDS011;74969;44.836;-0.586;2024-02-15T08:39:01;5.35;;;2.63;;
84738;SDS011;74969;44.836;-0.586;2024-02-15T08:41:29;6.03;;;2.95;;
84738;SDS011;74969;44.836;-0.586;2024-02-15T08:43:54;5.20;;;3.15;;
84738;SDS011;74969;44.836;-0.586;2024-02-15T08:46:23;3.67;;;2.90;;
84738;SDS011;74969;44.836;-0.586;2024-02-15T08:49:05;6.80;;;3.63;;
84738;SDS011;74969;44.836;-0.586;2024-02-15T08:51:31;3.78;;;2.72;;
84738;SDS011;74969;44.836;-0.586;2024-02-15T08:53:57;6.53;;;2.60;;
84738;SDS011;74969;44.836;-0.586;2024-02-15T08:56:25;3.97;;;3.53;;
84738;SDS011;74969;44.836;-0.586;2024-02-15T08:58:50;3.53;;;2.78;;
84738;SDS011;74969;44.836;-0.586;2024-02-15T09:01:16;4.43;;;3.67;;
84738;SDS011;74969;44.836;-0.586;2024-02-15T09:03:42;7.03;;;2.92;;
84738;SDS011;74969;44.836;-0.586;2024-02-15T09:06:08;4.10;;;3.65;;
84738;SDS011;74969;44.836;-0.586;2024-02-15T09:08:33;5.23;;;3.03;;
84738;SDS011;74969;44.836;-0.586;2024-02-15T09:10:59;4.23;;;3.47;;
84738;SDS011;74969;44.836;-0.586;2024-02-15T09:13:25;9.60;;;3.75;;
84738;SDS011;74969;44.836;-0.586;2024-02-15T09:15:50;9.07;;;3.47;;
84738;SDS011;74969;44.836;-0.586;2024-02-15T09:18:16;5.25;;;3.42;;
84738;SDS011;74969;44.836;-0.586;2024-02-15T09:20:47;6.20;;;3.53;;
84738;SDS011;74969;44.836;-0.586;2024-02-15T09:23:14;3.92;;;2.90;;
84738;SDS011;74969;44.836;-0.586;2024-02-15T09:25:40;4.20;;;3.03;;
84738;SDS011;74969;44.836;-0.586;2024-02-15T09:28:09;4.50;;;2.70;;
84738;SDS011;74969;44.836;-0.586;2024-02-15T09:30:35;5.67;;;3.47;;
84738;SDS011;74969;44.836;-0.586;2024-02-15T09:33:01;4.75;;;2.90;;
84738;SDS011;74969;44.836;-0.586;2024-02-15T09:35:30;4.25;;;2.72;;
84738;SDS011;74969;44.836;-0.586;2024-02-15T09:37:57;5.05;;;3.15;;
84738;SDS011;74969;44.836;-0.586;2024-02-15T09:40:22;4.17;;;2.83;;
84738;SDS011;74969;44.836;-0.586;2024-02-15T09:42:54;6.80;;;3.78;;
84738;SDS011;74969;44.836;-0.586;2024-02-15T09:45:19;8.68;;;3.40;;
84738;SDS011;74969;44.836;-0.586;2024-02-15T09:47:46;7.83;;;3.47;;
84738;SDS011;74969;44.836;-0.586;2024-02-15T09:50:15;6.95;;;3.53;;
84738;SDS011;74969;44.836;-0.586;2024-02-15T09:52:47;5.95;;;3.20;;
84738;SDS011;74969;44.836;-0.586;2024-02-15T09:55:16;5.78;;;3.30;;
84738;SDS011;74969;44.836;-0.586;2024-02-15T09:57:43;3.70;;;2.80;;
84738;SDS011;74969;44.836;-0.586;2024-02-15T10:00:11;5.30;;;2.85;;
84738;SDS011;74969;44.836;-0.586;2024-02-15T10:02:40;4.78;;;2.92;;
84738;SDS011;74969;44.836;-0.586;2024-02-15T10:05:10;5.75;;;2.50;;
84738;SDS011;74969;44.836;-0.586;2024-02-15T10:07:39;3.33;;;2.50;;
84738;SDS011;74969;44.836;-0.586;2024-02-15T10:12:51;4.57;;;2.95;;
84738;SDS011;74969;44.836;-0.586;2024-02-15T10:18:01;5.53;;;2.40;;
84738;SDS011;74969;44.836;-0.586;2024-02-15T10:20:28;4.78;;;2.83;;
84738;SDS011;74969;44.836;-0.586;2024-02-15T10:25:33;2.65;;;1.98;;
84738;SDS011;74969;44.836;-0.586;2024-02-15T10:28:03;4.18;;;2.30;;
84738;SDS011;74969;44.836;-0.586;2024-02-15T10:30:32;2.78;;;2.30;;
84738;SDS011;74969;44.836;-0.586;2024-02-15T10:33:05;2.78;;;2.10;;
84738;SDS011;74969;44.836;-0.586;2024-02-15T10:35:32;3.53;;;2.38;;
84738;SDS011;74969;44.836;-0.586;2024-02-15T10:38:05;4.55;;;2.40;;
84738;SDS011;74969;44.836;-0.586;2024-02-15T10:40:36;2.63;;;2.38;;
84738;SDS011;74969;44.836;-0.586;2024-02-15T10:43:02;3.03;;;2.25;;
84738;SDS011;74969;44.836;-0.586;2024-02-15T10:45:32;4.38;;;2.55;;
84738;SDS011;74969;44.836;-0.586;2024-02-15T10:48:01;3.53;;;2.30;;
84738;SDS011;74969;44.836;-0.586;2024-02-15T10:50:29;2.50;;;1.90;;
84738;SDS011;74969;44.836;-0.586;2024-02-15T10:52:56;3.05;;;2.00;;
84738;SDS011;74969;44.836;-0.586;2024-02-15T10:55:46;2.57;;;1.70;;
84738;SDS011;74969;44.836;-0.586;2024-02-15T10:58:19;3.38;;;1.98;;
84738;SDS011;74969;44.836;-0.586;2024-02-15T11:00:46;2.78;;;1.95;;
84738;SDS011;74969;44.836;-0.586;2024-02-15T11:03:17;3.00;;;2.08;;
84738;SDS011;74969;44.836;-0.586;2024-02-15T11:05:49;4.45;;;2.17;;
84738;SDS011;74969;44.836;-0.586;2024-02-15T11:08:16;4.00;;;1.97;;
84738;SDS011;74969;44.836;-0.586;2024-02-15T11:10:42;5.15;;;2.10;;
84738;SDS011;74969;44.836;-0.586;2024-02-15T11:13:08;2.17;;;1.90;;
84738;SDS011;74969;44.836;-0.586;2024-02-15T11:18:01;1.77;;;1.40;;
84738;SDS011;74969;44.836;-0.586;2024-02-15T11:23:01;2.60;;;1.70;;
84738;SDS011;74969;44.836;-0.586;2024-02-15T11:25:32;1.90;;;1.80;;
84738;SDS011;74969;44.836;-0.586;2024-02-15T11:30:51;2.90;;;1.30;;
84738;SDS011;74969;44.836;-0.586;2024-02-15T11:33:33;1.77;;;1.55;;
84738;SDS011;74969;44.836;-0.586;2024-02-15T11:38:39;4.72;;;1.30;;
84738;SDS011;74969;44.836;-0.586;2024-02-15T11:41:11;1.55;;;1.30;;
84738;SDS011;74969;44.836;-0.586;2024-02-15T11:48:42;2.53;;;1.25;;
84738;SDS011;74969;44.836;-0.586;2024-02-15T11:51:09;2.25;;;1.42;;
84738;SDS011;74969;44.836;-0.586;2024-02-15T11:53:36;2.03;;;1.38;;
84738;SDS011;74969;44.836;-0.586;2024-02-15T11:56:03;1.60;;;1.40;;
84738;SDS011;74969;44.836;-0.586;2024-02-15T11:58:34;2.38;;;1.70;;
84738;SDS011;74969;44.836;-0.586;2024-02-15T12:01:17;3.05;;;1.58;;
84738;SDS011;74969;44.836;-0.586;2024-02-15T12:04:01;2.47;;;1.83;;
84738;SDS011;74969;44.836;-0.586;2024-02-15T12:06:46;2.58;;;1.55;;
84738;SDS011;74969;44.836;-0.586;2024-02-15T12:09:30;2.65;;;1.65;;
84738;SDS011;74969;44.836;-0.586;2024-02-15T12:12:14;1.92;;;1.70;;
84738;SDS011;74969;44.836;-0.586;2024-02-15T12:14:59;2.90;;;1.75;;
84738;SDS011;74969;44.836;-0.586;2024-02-15T12:17:43;2.30;;;1.48;;
84738;SDS011;74969;44.836;-0.586;2024-02-15T12:20:27;2.25;;;1.60;;
84738;SDS011;74969;44.836;-0.586;2024-02-15T12:22:54;2.83;;;1.92;;
84738;SDS011;74969;44.836;-0.586;2024-02-15T12:25:20;5.32;;;1.90;;
84738;SDS011;74969;44.836;-0.586;2024-02-15T12:27:46;1.93;;;1.53;;
84738;SDS011;74969;44.836;-0.586;2024-02-15T12:30:18;3.67;;;1.60;;
84738;SDS011;74969;44.836;-0.586;2024-02-15T12:32:48;4.40;;;1.80;;
84738;SDS011;74969;44.836;-0.586;2024-02-15T12:35:15;2.20;;;1.92;;
84738;SDS011;74969;44.836;-0.586;2024-02-15T12:38:01;4.00;;;1.40;;
84738;SDS011;74969;44.836;-0.586;2024-02-15T12:40:31;1.77;;;1.67;;
84738;SDS011;74969;44.836;-0.586;2024-02-15T12:42:58;3.30;;;1.75;;
84738;SDS011;74969;44.836;-0.586;2024-02-15T12:45:31;4.80;;;2.00;;
84738;SDS011;74969;44.836;-0.586;2024-02-15T12:47:57;3.15;;;1.80;;
84738;SDS011;74969;44.836;-0.586;2024-02-15T12:50:27;3.75;;;1.80;;
84738;SDS011;74969;44.836;-0.586;2024-02-15T12:52:56;2.70;;;1.57;;
84738;SDS011;74969;44.836;-0.586;2024-02-15T12:55:27;1.95;;;1.50;;
84738;SDS011;74969;44.836;-0.586;2024-02-15T12:57:59;2.03;;;1.42;;
84738;SDS011;74969;44.836;-0.586;2024-02-15T13:00:29;2.33;;;1.52;;
84738;SDS011;74969;44.836;-0.586;2024-02-15T13:03:01;1.60;;;1.30;;
84738;SDS011;74969;44.836;-0.586;2024-02-15T13:05:28;1.43;;;1.10;;
84738;SDS011;74969;44.836;-0.586;2024-02-15T13:07:58;4.07;;;1.63;;
84738;SDS011;74969;44.836;-0.586;2024-02-15T13:10:24;4.13;;;1.58;;
84738;SDS011;74969;44.836;-0.586;2024-02-15T13:12:51;2.83;;;1.40;;
84738;SDS011;74969;44.836;-0.586;2024-02-15T13:15:17;1.60;;;1.50;;
84738;SDS011;74969;44.836;-0.586;2024-02-15T13:17:45;2.53;;;1.90;;
84738;SDS011;74969;44.836;-0.586;2024-02-15T13:20:13;2.95;;;1.40;;
84738;SDS011;74969;44.836;-0.586;2024-02-15T13:22:43;1.95;;;1.50;;
84738;SDS011;74969;44.836;-0.586;2024-02-15T13:25:09;1.75;;;1.52;;
84738;SDS011;74969;44.836;-0.586;2024-02-15T13:27:36;2.63;;;1.50;;
84738;SDS011;74969;44.836;-0.586;2024-02-15T13:30:06;2.38;;;1.20;;
84738;SDS011;74969;44.836;-0.586;2024-02-15T13:32:36;2.17;;;1.30;;
84738;SDS011;74969;44.836;-0.586;2024-02-15T13:35:06;1.95;;;1.20;;
84738;SDS011;74969;44.836;-0.586;2024-02-15T13:37:55;1.88;;;1.33;;
84738;SDS011;74969;44.836;-0.586;2024-02-15T13:40:25;2.53;;;1.30;;
84738;SDS011;74969;44.836;-0.586;2024-02-15T13:42:56;2.42;;;1.10;;
84738;SDS011;74969;44.836;-0.586;2024-02-15T13:48:05;2.60;;;1.60;;
84738;SDS011;74969;44.836;-0.586;2024-02-15T13:50:35;2.17;;;1.60;;
84738;SDS011;74969;44.836;-0.586;2024-02-15T13:53:03;2.30;;;1.60;;
84738;SDS011;74969;44.836;-0.586;2024-02-15T13:55:29;3.05;;;1.30;;
84738;SDS011;74969;44.836;-0.586;2024-02-15T13:57:56;1.92;;;1.63;;
84738;SDS011;74969;44.836;-0.586;2024-02-15T14:00:22;2.45;;;1.77;;
84738;SDS011;74969;44.836;-0.586;2024-02-15T14:02:55;3.00;;;1.80;;
84738;SDS011;74969;44.836;-0.586;2024-02-15T14:05:25;4.57;;;1.23;;
84738;SDS011;74969;44.836;-0.586;2024-02-15T14:08:04;2.50;;;1.40;;
84738;SDS011;74969;44.836;-0.586;2024-02-15T14:10:31;1.75;;;1.40;;
84738;SDS011;74969;44.836;-0.586;2024-02-15T14:13:00;3.95;;;1.45;;
84738;SDS011;74969;44.836;-0.586;2024-02-15T14:15:29;5.78;;;1.50;;
84738;SDS011;74969;44.836;-0.586;2024-02-15T14:17:55;4.75;;;1.80;;
84738;SDS011;74969;44.836;-0.586;2024-02-15T14:20:23;2.22;;;1.55;;
84738;SDS011;74969;44.836;-0.586;2024-02-15T14:22:50;3.70;;;2.03;;
84738;SDS011;74969;44.836;-0.586;2024-02-15T14:25:21;2.60;;;1.27;;
84738;SDS011;74969;44.836;-0.586;2024-02-15T14:27:47;3.25;;;1.83;;
84738;SDS011;74969;44.836;-0.586;2024-02-15T14:30:13;2.85;;;1.58;;
84738;SDS011;74969;44.836;-0.586;2024-02-15T14:32:57;2.95;;;1.60;;
84738;SDS011;74969;44.836;-0.586;2024-02-15T14:35:35;3.70;;;1.83;;
84738;SDS011;74969;44.836;-0.586;2024-02-15T14:38:03;2.78;;;1.38;;
84738;SDS011;74969;44.836;-0.586;2024-02-15T14:40:41;2.50;;;1.30;;
84738;SDS011;74969;44.836;-0.586;2024-02-15T14:43:15;2.95;;;1.27;;
84738;SDS011;74969;44.836;-0.586;2024-02-15T14:45:42;2.60;;;1.90;;
84738;SDS011;74969;44.836;-0.586;2024-02-15T14:48:11;1.88;;;1.55;;
84738;SDS011;74969;44.836;-0.586;2024-02-15T14:50:38;4.03;;;1.52;;
84738;SDS011;74969;44.836;-0.586;2024-02-15T14:53:07;2.13;;;1.55;;
84738;SDS011;74969;44.836;-0.586;2024-02-15T14:55:36;3.38;;;1.70;;
84738;SDS011;74969;44.836;-0.586;2024-02-15T14:58:08;1.50;;;1.30;;
84738;SDS011;74969;44.836;-0.586;2024-02-15T15:00:34;1.50;;;1.33;;
84738;SDS011;74969;44.836;-0.586;2024-02-15T15:03:02;3.20;;;1.45;;
84738;SDS011;74969;44.836;-0.586;2024-02-15T15:05:28;5.07;;;1.63;;
84738;SDS011;74969;44.836;-0.586;2024-02-15T15:08:12;3.70;;;1.65;;